createdAt,value
2022-09-16T00:02:14.605Z,1.43
2022-09-16T00:04:41.845Z,1.30
2022-09-16T00:07:09.037Z,1.37
2022-09-16T00:09:38.223Z,1.30
2022-09-16T00:12:08.830Z,1.17
2022-09-16T00:14:36.156Z,1.00
2022-09-16T00:17:03.431Z,1.20
2022-09-16T00:19:30.585Z,1.03
2022-09-16T00:21:57.751Z,1.47
2022-09-16T00:24:25.096Z,1.00
2022-09-16T00:26:54.655Z,1.33
2022-09-16T00:29:21.764Z,1.80
2022-09-16T00:31:49.041Z,1.50
2022-09-16T00:34:16.200Z,1.40
2022-09-16T00:36:43.319Z,1.10
2022-09-16T00:39:10.487Z,1.20
2022-09-16T00:41:37.743Z,1.30
2022-09-16T00:44:06.118Z,1.00
2022-09-16T00:46:33.715Z,0.90
2022-09-16T00:49:03.829Z,1.30
2022-09-16T00:51:31.786Z,1.60
2022-09-16T00:54:02.209Z,1.63
2022-09-16T00:56:30.854Z,1.20
2022-09-16T00:59:04.180Z,1.30
2022-09-16T01:01:33.885Z,2.33
2022-09-16T01:04:04.120Z,1.00
2022-09-16T01:06:31.785Z,1.30
2022-09-16T01:08:59.183Z,1.33
2022-09-16T01:11:26.887Z,1.90
2022-09-16T01:13:54.411Z,1.23
2022-09-16T01:16:28.031Z,1.40
2022-09-16T01:19:02.650Z,1.20
2022-09-16T01:21:29.818Z,1.50
2022-09-16T01:24:06.497Z,1.60
2022-09-16T01:26:39.594Z,1.50
2022-09-16T01:29:25.341Z,1.23
2022-09-16T01:32:10.759Z,1.13
2022-09-16T01:34:47.949Z,1.70
2022-09-16T01:37:15.047Z,1.63
2022-09-16T01:39:45.216Z,2.10
2022-09-16T01:42:21.362Z,1.90
2022-09-16T01:44:54.222Z,1.63
2022-09-16T01:47:27.919Z,1.37
2022-09-16T01:50:00.395Z,1.80
2022-09-16T01:52:30.348Z,1.70
2022-09-16T01:55:01.508Z,1.70
2022-09-16T01:57:36.579Z,2.00
2022-09-16T02:00:07.340Z,2.17
2022-09-16T02:02:38.714Z,2.03
2022-09-16T02:05:08.334Z,1.60
2022-09-16T02:07:37.255Z,1.80
2022-09-16T02:10:28.379Z,1.90
2022-09-16T02:12:58.782Z,1.80
2022-09-16T02:15:27.051Z,2.07
2022-09-16T02:18:01.135Z,1.40
2022-09-16T02:20:30.207Z,1.50
2022-09-16T02:23:03.720Z,1.70
2022-09-16T02:25:32.824Z,1.23
2022-09-16T02:28:03.968Z,1.40
2022-09-16T02:30:31.346Z,1.10
2022-09-16T02:33:07.352Z,1.50
2022-09-16T02:35:37.078Z,1.80
2022-09-16T02:38:24.559Z,0.93
2022-09-16T02:40:53.312Z,1.67
2022-09-16T02:43:20.666Z,1.70
2022-09-16T02:45:50.592Z,1.60
2022-09-16T02:48:37.975Z,1.80
2022-09-16T02:51:28.556Z,1.43
2022-09-16T02:53:59.430Z,1.67
2022-09-16T02:56:44.734Z,1.70
2022-09-16T02:59:13.266Z,1.80
2022-09-16T03:01:42.171Z,1.70
2022-09-16T03:04:11.256Z,1.40
2022-09-16T03:06:39.340Z,1.63
2022-09-16T03:09:10.894Z,1.93
2022-09-16T03:11:56.802Z,1.80
2022-09-16T03:14:23.909Z,1.50
2022-09-16T03:17:09.527Z,1.80
2022-09-16T03:19:48.787Z,1.90
2022-09-16T03:22:28.124Z,1.93
2022-09-16T03:25:21.628Z,3.00
2022-09-16T03:27:53.476Z,2.00
2022-09-16T03:30:20.983Z,2.23
2022-09-16T03:32:58.576Z,2.30
2022-09-16T03:35:32.362Z,2.50
2022-09-16T03:38:00.264Z,2.50
2022-09-16T03:40:32.138Z,2.50
2022-09-16T03:42:59.946Z,2.57
2022-09-16T03:45:27.430Z,2.57
2022-09-16T03:47:54.685Z,2.50
2022-09-16T03:50:22.066Z,3.13
2022-09-16T03:52:49.215Z,2.80
2022-09-16T03:55:17.045Z,2.83
2022-09-16T03:57:44.581Z,2.60
2022-09-16T04:00:12.106Z,2.83
2022-09-16T04:02:39.734Z,2.90
2022-09-16T04:05:08.998Z,2.93
2022-09-16T04:07:36.363Z,3.00
2022-09-16T04:10:03.558Z,3.17
2022-09-16T04:12:30.690Z,3.10
2022-09-16T04:14:59.534Z,2.80
2022-09-16T04:17:27.963Z,3.00
2022-09-16T04:19:56.811Z,2.63
2022-09-16T04:22:24.240Z,3.27
2022-09-16T04:24:51.452Z,2.80
2022-09-16T04:27:19.510Z,3.20
2022-09-16T04:29:46.791Z,2.97
2022-09-16T04:32:15.605Z,3.07
2022-09-16T04:34:45.607Z,2.70
2022-09-16T04:37:13.921Z,2.30
2022-09-16T04:39:41.773Z,3.33
2022-09-16T04:42:12.619Z,3.27
2022-09-16T04:44:40.250Z,2.90
2022-09-16T04:47:07.699Z,2.77
2022-09-16T04:49:34.804Z,2.53
2022-09-16T04:52:01.993Z,2.80
2022-09-16T04:54:29.333Z,2.40
2022-09-16T04:56:57.711Z,2.63
2022-09-16T04:59:24.822Z,2.20
2022-09-16T05:01:52.397Z,2.20
2022-09-16T05:04:19.695Z,2.33
2022-09-16T05:06:47.859Z,2.23
2022-09-16T05:09:15.176Z,1.97
2022-09-16T05:11:42.384Z,2.00
2022-09-16T05:14:12.553Z,2.40
2022-09-16T05:16:39.749Z,2.20
2022-09-16T05:19:06.902Z,2.47
2022-09-16T05:21:35.804Z,1.67
2022-09-16T05:24:04.914Z,2.03
2022-09-16T05:26:32.826Z,1.57
2022-09-16T05:29:04.450Z,1.27
2022-09-16T05:31:35.392Z,1.50
2022-09-16T05:34:03.863Z,1.67
2022-09-16T05:36:33.091Z,1.50
2022-09-16T05:41:48.792Z,1.60
2022-09-16T05:44:16.142Z,1.37
2022-09-16T05:46:45.058Z,1.50
2022-09-16T05:49:12.440Z,1.27
2022-09-16T05:51:41.440Z,1.10
2022-09-16T05:54:09.200Z,1.30
2022-09-16T05:56:36.376Z,1.70
2022-09-16T05:59:03.567Z,1.33
2022-09-16T06:01:32.430Z,1.07
2022-09-16T06:04:02.169Z,1.70
2022-09-16T06:06:30.911Z,1.57
2022-09-16T06:08:59.308Z,1.30
2022-09-16T06:11:27.287Z,1.30
2022-09-16T06:13:57.687Z,1.13
2022-09-16T06:16:28.822Z,1.20
2022-09-16T06:18:57.182Z,1.70
2022-09-16T06:21:24.989Z,1.40
2022-09-16T06:23:54.578Z,1.10
2022-09-16T06:26:23.200Z,1.93
2022-09-16T06:28:51.281Z,1.87
2022-09-16T06:31:21.980Z,1.57
2022-09-16T06:33:52.592Z,1.63
2022-09-16T06:36:22.579Z,1.80
2022-09-16T06:38:50.135Z,2.10
2022-09-16T06:41:18.295Z,1.80
2022-09-16T06:43:45.796Z,1.93
2022-09-16T06:46:16.370Z,2.20
2022-09-16T06:48:44.715Z,1.70
2022-09-16T06:51:14.772Z,1.50
2022-09-16T06:53:42.070Z,1.60
2022-09-16T06:56:13.999Z,1.70
2022-09-16T06:58:42.277Z,1.90
2022-09-16T07:01:10.979Z,1.63
2022-09-16T07:03:38.984Z,1.53
2022-09-16T07:06:06.379Z,1.10
2022-09-16T07:08:34.147Z,1.10
2022-09-16T07:11:03.297Z,1.70
2022-09-16T07:13:30.487Z,1.60
2022-09-16T07:16:13.762Z,1.30
2022-09-16T07:18:42.002Z,1.50
2022-09-16T07:21:13.600Z,1.10
2022-09-16T07:23:41.072Z,1.27
2022-09-16T07:26:09.489Z,1.03
2022-09-16T07:28:37.247Z,1.00
2022-09-16T07:31:05.619Z,0.87
2022-09-16T07:33:36.322Z,1.20
2022-09-16T07:36:05.131Z,0.90
2022-09-16T07:38:32.751Z,1.23
2022-09-16T07:41:06.886Z,1.23
2022-09-16T07:43:34.083Z,1.13
2022-09-16T07:46:01.623Z,0.90
2022-09-16T07:48:34.848Z,1.20
2022-09-16T07:51:05.387Z,1.20
2022-09-16T07:53:32.959Z,0.93
2022-09-16T07:56:04.457Z,1.20
2022-09-16T07:58:31.713Z,1.03
2022-09-16T08:01:04.033Z,1.57
2022-09-16T08:03:33.530Z,1.23
2022-09-16T08:06:02.116Z,1.20
2022-09-16T08:08:29.258Z,1.20
2022-09-16T08:10:57.167Z,1.23
2022-09-16T08:13:24.420Z,1.03
2022-09-16T08:15:53.836Z,1.30
2022-09-16T08:18:21.079Z,0.80
2022-09-16T08:20:48.329Z,1.40
2022-09-16T08:23:15.525Z,1.07
2022-09-16T08:25:42.652Z,1.20
2022-09-16T08:28:13.520Z,1.20
2022-09-16T08:30:40.632Z,1.00
2022-09-16T08:33:07.992Z,1.23
2022-09-16T08:35:35.254Z,0.83
2022-09-16T08:38:02.857Z,1.43
2022-09-16T08:40:33.185Z,1.30
2022-09-16T08:43:18.336Z,1.53
2022-09-16T08:45:45.591Z,1.30
2022-09-16T08:48:27.932Z,1.30
2022-09-16T08:50:57.880Z,1.23
2022-09-16T08:53:35.142Z,1.00
2022-09-16T08:56:04.372Z,1.63
2022-09-16T08:58:34.819Z,0.90
2022-09-16T09:01:05.955Z,1.77
2022-09-16T09:03:33.248Z,2.20
2022-09-16T09:06:01.403Z,1.43
2022-09-16T09:08:46.415Z,1.50
2022-09-16T09:11:19.616Z,1.50
2022-09-16T09:14:04.000Z,1.23
2022-09-16T09:16:46.432Z,1.63
2022-09-16T09:19:22.896Z,1.37
2022-09-16T09:22:05.415Z,1.43
2022-09-16T09:24:43.314Z,1.80
2022-09-16T09:27:18.572Z,1.70
2022-09-16T09:30:03.945Z,1.50
2022-09-16T09:32:48.087Z,1.37
2022-09-16T09:35:22.330Z,1.20
2022-09-16T09:37:50.876Z,1.70
2022-09-16T09:40:40.018Z,1.37
2022-09-16T09:43:15.027Z,1.57
2022-09-16T09:45:52.923Z,2.20
2022-09-16T09:48:22.156Z,2.40
2022-09-16T09:50:50.178Z,1.33
2022-09-16T09:53:50.101Z,1.10
2022-09-16T09:56:17.440Z,1.67
2022-09-16T09:58:52.190Z,1.20
2022-09-16T10:01:19.406Z,1.50
2022-09-16T10:03:46.569Z,1.60
2022-09-16T10:06:13.784Z,1.37
2022-09-16T10:08:49.031Z,1.50
2022-09-16T10:11:18.151Z,1.60
2022-09-16T10:13:49.634Z,2.03
2022-09-16T10:16:18.367Z,1.90
2022-09-16T10:18:45.811Z,2.27
2022-09-16T10:21:14.286Z,1.70
2022-09-16T10:23:41.509Z,1.13
2022-09-16T10:26:20.212Z,1.90
2022-09-16T10:28:58.058Z,1.53
2022-09-16T10:31:29.187Z,1.77
2022-09-16T10:34:00.537Z,1.67
2022-09-16T10:36:34.986Z,1.63
2022-09-16T10:39:05.453Z,1.40
2022-09-16T10:41:47.942Z,2.10
2022-09-16T10:44:27.571Z,1.13
2022-09-16T10:47:08.297Z,1.20
2022-09-16T10:49:39.179Z,1.30
2022-09-16T10:52:10.698Z,1.03
2022-09-16T10:54:37.928Z,1.23
2022-09-16T10:57:05.092Z,1.23
2022-09-16T10:59:32.271Z,1.60
2022-09-16T11:02:02.621Z,1.33
2022-09-16T11:04:48.571Z,1.13
2022-09-16T11:07:28.337Z,2.37
2022-09-16T11:10:01.968Z,1.07
2022-09-16T11:12:38.238Z,1.20
2022-09-16T11:15:05.491Z,1.47
2022-09-16T11:17:42.212Z,2.60
2022-09-16T11:20:28.205Z,1.70
2022-09-16T11:23:02.271Z,1.40
2022-09-16T11:25:48.171Z,0.97
2022-09-16T11:28:15.302Z,1.13
2022-09-16T11:30:48.944Z,1.50
2022-09-16T11:33:25.049Z,1.50
2022-09-16T11:35:58.095Z,1.80
2022-09-16T11:38:49.498Z,1.33
2022-09-16T11:41:23.815Z,1.50
2022-09-16T11:43:57.887Z,1.83
2022-09-16T11:46:28.074Z,1.67
2022-09-16T11:49:04.197Z,0.93
2022-09-16T11:51:57.708Z,1.47
2022-09-16T11:54:25.950Z,1.40
2022-09-16T11:56:56.482Z,1.07
2022-09-16T11:59:32.536Z,1.33
2022-09-16T12:01:59.715Z,1.53
2022-09-16T12:04:34.985Z,1.57
2022-09-16T12:07:08.083Z,1.43
2022-09-16T12:09:55.601Z,1.50
2022-09-16T12:12:29.816Z,1.90
2022-09-16T12:15:05.608Z,1.53
2022-09-16T12:17:35.618Z,1.27
2022-09-16T12:20:16.323Z,1.73
2022-09-16T12:23:09.912Z,1.60
2022-09-16T12:25:46.202Z,1.40
2022-09-16T12:28:20.056Z,2.40
2022-09-16T12:30:49.759Z,1.20
2022-09-16T12:33:19.959Z,1.67
2022-09-16T12:35:47.136Z,1.80
2022-09-16T12:38:18.723Z,1.60
2022-09-16T12:40:58.082Z,1.37
2022-09-16T12:43:27.983Z,1.17
2022-09-16T12:46:13.679Z,1.50
2022-09-16T12:48:59.304Z,1.60
2022-09-16T12:51:26.403Z,1.63
2022-09-16T12:53:53.655Z,1.20
2022-09-16T12:56:40.056Z,1.40
2022-09-16T12:59:07.183Z,1.90
2022-09-16T13:01:39.558Z,1.97
2022-09-16T13:04:12.598Z,1.30
2022-09-16T13:06:41.751Z,1.30
2022-09-16T13:09:17.027Z,1.17
2022-09-16T13:12:31.833Z,1.20
2022-09-16T13:14:53.915Z,1.80
2022-09-16T13:17:37.652Z,1.80
2022-09-16T13:20:17.321Z,1.53
2022-09-16T13:22:56.666Z,2.90
2022-09-16T13:25:50.029Z,1.70
2022-09-16T13:28:26.264Z,1.40
2022-09-16T13:30:53.918Z,1.43
2022-09-16T13:33:29.227Z,1.23
2022-09-16T13:36:05.034Z,1.77
2022-09-16T13:38:39.902Z,1.87
2022-09-16T13:41:07.513Z,1.60
2022-09-16T13:43:50.208Z,1.70
2022-09-16T13:46:32.720Z,2.00
2022-09-16T13:49:06.612Z,2.00
2022-09-16T13:51:40.082Z,1.77
2022-09-16T13:54:19.195Z,2.57
2022-09-16T13:56:49.499Z,1.70
2022-09-16T13:59:21.989Z,2.07
2022-09-16T14:01:59.422Z,2.50
2022-09-16T14:04:47.485Z,1.97
2022-09-16T14:07:14.659Z,1.73
2022-09-16T14:09:46.724Z,1.77
2022-09-16T14:12:15.455Z,1.30
2022-09-16T14:14:47.447Z,1.83
2022-09-16T14:17:20.589Z,1.97
2022-09-16T14:19:49.327Z,1.30
2022-09-16T14:22:17.656Z,1.83
2022-09-16T14:24:45.875Z,1.73
2022-09-16T14:27:39.784Z,1.53
2022-09-16T14:30:13.679Z,2.00
2022-09-16T14:32:41.334Z,1.47
2022-09-16T14:35:12.877Z,1.50
2022-09-16T14:37:40.653Z,1.70
2022-09-16T14:40:12.970Z,1.33
2022-09-16T14:42:44.804Z,1.10
2022-09-16T14:45:16.929Z,1.47
2022-09-16T14:47:51.656Z,2.07
2022-09-16T14:50:33.341Z,1.50
2022-09-16T14:53:09.206Z,1.50
2022-09-16T14:55:40.140Z,1.80
2022-09-16T14:58:10.278Z,1.40
2022-09-16T15:00:48.730Z,1.93
2022-09-16T15:03:27.171Z,1.63
2022-09-16T15:05:55.870Z,1.30
2022-09-16T15:08:33.953Z,1.40
2022-09-16T15:11:04.902Z,1.70
2022-09-16T15:13:36.555Z,1.43
2022-09-16T15:16:15.246Z,2.10
2022-09-16T15:18:53.277Z,1.57
2022-09-16T15:21:22.469Z,1.40
2022-09-16T15:23:51.372Z,1.30
2022-09-16T15:26:25.291Z,1.50
2022-09-16T15:29:02.760Z,1.67
2022-09-16T15:31:38.835Z,1.50
2022-09-16T15:34:23.187Z,1.50
2022-09-16T15:36:52.168Z,1.60
2022-09-16T15:39:25.229Z,1.30
2022-09-16T15:42:06.088Z,1.30
2022-09-16T15:44:37.440Z,1.60
2022-09-16T15:47:05.045Z,1.30
2022-09-16T15:49:34.399Z,0.97
2022-09-16T15:52:10.092Z,1.23
2022-09-16T15:54:39.738Z,0.90
2022-09-16T15:57:11.246Z,2.23
2022-09-16T15:59:45.615Z,1.77
2022-09-16T16:02:21.802Z,1.03
2022-09-16T16:04:49.318Z,2.23
2022-09-16T16:07:36.435Z,1.60
2022-09-16T16:10:15.191Z,1.40
2022-09-16T16:12:42.325Z,1.17
2022-09-16T16:15:09.607Z,1.60
2022-09-16T16:17:36.985Z,1.27
2022-09-16T16:20:04.246Z,1.40
2022-09-16T16:22:32.519Z,1.37
2022-09-16T16:24:59.994Z,1.40
2022-09-16T16:27:27.094Z,2.13
2022-09-16T16:29:54.271Z,1.70
2022-09-16T16:32:21.767Z,1.20
2022-09-16T16:34:54.608Z,1.87
2022-09-16T16:37:44.794Z,1.60
2022-09-16T16:40:09.756Z,1.77
2022-09-16T16:42:37.992Z,1.80
2022-09-16T16:45:05.375Z,1.27
2022-09-16T16:47:32.521Z,1.50
2022-09-16T16:50:00.880Z,1.80
2022-09-16T16:52:28.117Z,1.60
2022-09-16T16:54:55.242Z,2.07
2022-09-16T16:57:22.423Z,1.70
2022-09-16T16:59:49.552Z,1.27
2022-09-16T17:02:16.868Z,1.73
2022-09-16T17:04:44.149Z,2.00
2022-09-16T17:07:27.968Z,2.30
2022-09-16T17:09:57.062Z,1.53
2022-09-16T17:12:24.205Z,2.00
2022-09-16T17:14:51.378Z,2.00
2022-09-16T17:17:18.515Z,1.63
2022-09-16T17:19:45.659Z,2.17
2022-09-16T17:22:12.817Z,1.70
2022-09-16T17:24:39.938Z,2.07
2022-09-16T17:27:07.065Z,2.87
2022-09-16T17:29:34.487Z,2.40
2022-09-16T17:32:03.297Z,1.83
2022-09-16T17:34:30.979Z,2.13
2022-09-16T17:36:58.402Z,1.93
2022-09-16T17:39:25.957Z,2.20
2022-09-16T17:41:54.523Z,2.30
2022-09-16T17:44:22.076Z,2.00
2022-09-16T17:46:49.368Z,2.50
2022-09-16T17:49:18.458Z,2.27
2022-09-16T17:51:45.990Z,2.00
2022-09-16T17:54:13.534Z,2.10
2022-09-16T17:56:42.671Z,1.90
2022-09-16T17:59:10.846Z,2.23
2022-09-16T18:01:39.062Z,2.10
2022-09-16T18:04:07.108Z,2.20
2022-09-16T18:06:41.712Z,3.07
2022-09-16T18:09:08.860Z,2.47
2022-09-16T18:11:36.860Z,2.80
2022-09-16T18:14:05.430Z,2.93
2022-09-16T18:16:32.948Z,2.13
2022-09-16T18:19:01.344Z,1.83
2022-09-16T18:21:28.770Z,1.90
2022-09-16T18:23:57.147Z,1.53
2022-09-16T18:26:24.670Z,2.20
2022-09-16T18:29:19.759Z,2.37
2022-09-16T18:31:43.750Z,2.20
2022-09-16T18:34:11.346Z,1.03
2022-09-16T18:36:39.383Z,1.40
2022-09-16T18:39:07.044Z,1.80
2022-09-16T18:41:38.443Z,1.70
2022-09-16T18:44:09.790Z,1.90
2022-09-16T18:46:37.923Z,1.40
2022-09-16T18:49:05.785Z,1.37
2022-09-16T18:51:41.059Z,1.50
2022-09-16T18:54:09.498Z,0.90
2022-09-16T18:56:37.488Z,1.33
2022-09-16T18:59:23.496Z,1.33
2022-09-16T19:01:54.764Z,0.73
2022-09-16T19:04:23.525Z,0.87
2022-09-16T19:06:52.405Z,1.10
2022-09-16T19:09:23.543Z,1.90
2022-09-16T19:11:52.794Z,1.33
2022-09-16T19:14:22.397Z,1.07
2022-09-16T19:16:49.639Z,1.50
2022-09-16T19:19:17.107Z,1.50
2022-09-16T19:21:44.671Z,1.30
2022-09-16T19:24:14.328Z,1.10
2022-09-16T19:26:42.217Z,1.40
2022-09-16T19:29:10.011Z,1.10
2022-09-16T19:31:38.756Z,1.17
2022-09-16T19:34:06.899Z,1.00
2022-09-16T19:36:35.116Z,1.73
2022-09-16T19:39:02.486Z,1.23
2022-09-16T19:41:31.981Z,1.50
2022-09-16T19:44:00.372Z,1.40
2022-09-16T19:46:28.979Z,1.40
2022-09-16T19:48:56.516Z,1.67
2022-09-16T19:51:24.900Z,1.33
2022-09-16T19:53:52.842Z,1.40
2022-09-16T19:56:21.347Z,1.40
2022-09-16T19:58:49.336Z,2.70
2022-09-16T20:01:20.294Z,1.50
2022-09-16T20:03:49.498Z,1.57
2022-09-16T20:06:18.106Z,1.30
2022-09-16T20:08:46.682Z,1.53
2022-09-16T20:11:24.042Z,1.70
2022-09-16T20:13:59.183Z,1.60
2022-09-16T20:16:27.897Z,1.57
2022-09-16T20:18:55.446Z,1.20
2022-09-16T20:21:25.975Z,1.70
2022-09-16T20:23:53.909Z,1.77
2022-09-16T20:26:21.797Z,1.10
2022-09-16T20:28:52.510Z,1.70
2022-09-16T20:31:21.917Z,1.53
2022-09-16T20:33:49.309Z,1.63
2022-09-16T20:36:17.772Z,1.63
2022-09-16T20:38:45.290Z,1.30
2022-09-16T20:41:26.331Z,1.77
2022-09-16T20:43:53.993Z,1.53
2022-09-16T20:46:22.114Z,1.63
2022-09-16T20:48:49.727Z,1.87
2022-09-16T20:51:17.954Z,1.63
2022-09-16T20:53:45.850Z,1.93
2022-09-16T20:56:14.664Z,1.60
2022-09-16T20:58:42.343Z,1.40
2022-09-16T21:01:12.453Z,1.73
2022-09-16T21:03:39.844Z,1.50
2022-09-16T21:06:08.566Z,3.20
2022-09-16T21:08:39.780Z,2.00
2022-09-16T21:11:14.431Z,2.00
2022-09-16T21:13:42.418Z,2.23
2022-09-16T21:16:10.906Z,2.53
2022-09-16T21:18:39.166Z,2.67
2022-09-16T21:21:12.259Z,1.77
2022-09-16T21:23:39.867Z,2.20
2022-09-16T21:26:14.280Z,1.70
2022-09-16T21:28:41.803Z,1.93
2022-09-16T21:31:13.331Z,1.77
2022-09-16T21:33:41.687Z,2.43
2022-09-16T21:36:10.512Z,2.10
2022-09-16T21:38:38.615Z,1.90
2022-09-16T21:41:07.021Z,1.70
2022-09-16T21:43:35.821Z,1.57
2022-09-16T21:46:03.011Z,2.47
2022-09-16T21:48:32.072Z,1.63
2022-09-16T21:51:06.445Z,1.60
2022-09-16T21:53:34.575Z,2.17
2022-09-16T21:56:02.896Z,1.50
2022-09-16T21:58:30.228Z,1.80
2022-09-16T22:01:11.469Z,1.43
2022-09-16T22:03:39.823Z,1.53
2022-09-16T22:06:08.554Z,1.83
2022-09-16T22:08:35.923Z,1.43
2022-09-16T22:11:07.697Z,1.73
2022-09-16T22:13:35.135Z,2.13
2022-09-16T22:16:02.830Z,2.17
2022-09-16T22:18:31.215Z,1.73
2022-09-16T22:21:11.618Z,1.77
2022-09-16T22:23:39.548Z,2.70
2022-09-16T22:26:11.303Z,1.20
2022-09-16T22:28:39.126Z,1.97
2022-09-16T22:31:14.076Z,2.20
2022-09-16T22:33:41.979Z,2.07
2022-09-16T22:36:10.524Z,1.80
2022-09-16T22:38:37.770Z,1.10
2022-09-16T22:41:07.419Z,2.10
2022-09-16T22:43:35.703Z,1.83
2022-09-16T22:46:04.102Z,1.83
2022-09-16T22:48:31.644Z,1.40
2022-09-16T22:51:00.038Z,1.57
2022-09-16T22:53:28.046Z,1.80
2022-09-16T22:55:56.107Z,1.90
2022-09-16T22:58:23.768Z,1.87
2022-09-16T23:00:51.903Z,1.77
2022-09-16T23:03:19.589Z,2.20
2022-09-16T23:05:56.636Z,2.00
2022-09-16T23:08:24.427Z,1.90
2022-09-16T23:10:51.999Z,2.17
2022-09-16T23:13:20.219Z,2.00
2022-09-16T23:15:49.206Z,2.00
2022-09-16T23:18:18.775Z,1.93
2022-09-16T23:20:45.908Z,2.47
2022-09-16T23:23:13.023Z,2.00
2022-09-16T23:25:40.466Z,1.47
2022-09-16T23:28:07.587Z,2.03
2022-09-16T23:30:34.703Z,1.77
2022-09-16T23:33:01.989Z,2.27
2022-09-16T23:35:29.316Z,1.60
2022-09-16T23:37:57.706Z,2.07
2022-09-16T23:40:27.516Z,2.07
2022-09-16T23:42:56.185Z,2.30
2022-09-16T23:45:23.628Z,2.63
2022-09-16T23:47:50.776Z,2.20
2022-09-16T23:50:18.086Z,1.67
2022-09-16T23:52:45.514Z,2.83
2022-09-16T23:55:12.749Z,2.10
2022-09-16T23:57:42.514Z,2.03
